Time;durP1;ratioP1;P1;durP2;ratioP2;P2;SDS_P1;SDS_P2;PMS_P1;PMS_P2;Temp;Humidity;BMP_temperature;BMP_pressure;BME280_temperature;BME280_humidity;BME280_pressure;Samples;Min_cycle;Max_cycle;Signal;HPM_P1;HPM_P2
2021/09/08 00:00:28;;;;;;;18.30;15.15;;;15.00;99.90;;;;;;5106259;28;20499;-66
2021/09/08 00:02:53;;;;;;;17.85;15.02;;;15.00;99.90;;;;;;5107419;28;20097;-66
2021/09/08 00:05:19;;;;;;;16.92;13.57;;;14.90;99.90;;;;;;5107470;28;20441;-66
2021/09/08 00:07:45;;;;;;;17.05;13.10;;;14.90;99.90;;;;;;5106065;28;20568;-66
2021/09/08 00:10:12;;;;;;;15.27;12.75;;;14.90;99.90;;;;;;5105826;28;20052;-66
2021/09/08 00:12:39;;;;;;;16.20;13.05;;;14.90;99.90;;;;;;5106119;28;20055;-66
2021/09/08 00:15:07;;;;;;;16.27;12.70;;;14.80;99.90;;;;;;5106106;28;20052;-66
2021/09/08 00:17:33;;;;;;;14.10;12.43;;;14.80;99.90;;;;;;5106316;28;20114;-65
2021/09/08 00:19:59;;;;;;;15.85;12.68;;;14.70;99.90;;;;;;5107310;28;20103;-66
2021/09/08 00:22:24;;;;;;;14.93;12.27;;;14.70;99.90;;;;;;5105857;28;20036;-66
2021/09/08 00:24:50;;;;;;;14.02;11.50;;;14.60;99.90;;;;;;5105920;28;20055;-66
2021/09/08 00:27:16;;;;;;;15.55;12.57;;;14.60;99.90;;;;;;5091224;28;20036;-66
2021/09/08 00:29:43;;;;;;;14.65;11.65;;;14.60;99.90;;;;;;5105549;28;20040;-66
2021/09/08 00:32:08;;;;;;;21.35;16.35;;;14.60;99.90;;;;;;5105310;28;20048;-66
2021/09/08 00:34:34;;;;;;;20.88;16.35;;;14.50;99.90;;;;;;5105596;28;20075;-66
2021/09/08 00:37:00;;;;;;;19.27;15.63;;;14.50;99.90;;;;;;5105546;28;20052;-66
2021/09/08 00:39:26;;;;;;;17.70;14.32;;;14.50;99.90;;;;;;5105083;28;20107;-66
2021/09/08 00:41:51;;;;;;;19.90;15.90;;;14.50;99.90;;;;;;5106485;28;20028;-65
2021/09/08 00:44:17;;;;;;;17.80;14.02;;;14.60;99.90;;;;;;5106017;28;20079;-66
2021/09/08 00:46:44;;;;;;;16.58;14.38;;;14.60;99.90;;;;;;5105929;28;20032;-66
2021/09/08 00:49:11;;;;;;;18.15;14.10;;;14.60;99.90;;;;;;5106175;28;20036;-66
2021/09/08 00:51:38;;;;;;;15.85;13.48;;;14.60;99.90;;;;;;5104777;28;20069;-66
2021/09/08 00:54:12;;;;;;;18.08;14.00;;;14.50;99.90;;;;;;5105625;28;20048;-66
2021/09/08 00:56:41;;;;;;;21.48;16.55;;;14.40;99.90;;;;;;5101115;28;20465;-66
2021/09/08 00:59:06;;;;;;;16.92;13.27;;;14.30;99.90;;;;;;5106662;28;20055;-66
2021/09/08 01:01:32;;;;;;;13.88;11.38;;;14.30;99.90;;;;;;5105265;28;20051;-66
2021/09/08 01:03:58;;;;;;;14.68;11.15;;;14.30;99.90;;;;;;5105934;28;20052;-65
2021/09/08 01:06:24;;;;;;;12.48;10.05;;;14.20;99.90;;;;;;5106196;28;20036;-66
2021/09/08 01:08:51;;;;;;;11.77;10.52;;;14.20;99.90;;;;;;5103649;28;20040;-65
2021/09/08 01:11:17;;;;;;;14.60;11.93;;;14.20;99.90;;;;;;5102743;28;20076;-66
2021/09/08 01:13:43;;;;;;;16.13;12.80;;;14.20;99.90;;;;;;5095404;28;20086;-66
2021/09/08 01:16:09;;;;;;;14.85;12.98;;;14.10;99.90;;;;;;5106065;28;20407;-66
2021/09/08 01:18:36;;;;;;;13.05;10.98;;;14.00;99.90;;;;;;5105496;28;20047;-66
2021/09/08 01:21:03;;;;;;;12.20;10.63;;;14.00;99.90;;;;;;5105641;28;20042;-66
2021/09/08 01:23:29;;;;;;;16.30;12.13;;;14.00;99.90;;;;;;5103984;28;20051;-65
2021/09/08 01:25:55;;;;;;;20.60;15.73;;;14.00;99.90;;;;;;5105759;28;20123;-66
2021/09/08 01:28:21;;;;;;;14.88;11.70;;;14.00;99.90;;;;;;5100597;28;20044;-66
2021/09/08 01:30:53;;;;;;;14.27;12.77;;;14.00;99.90;;;;;;5099011;28;20092;-66
2021/09/08 01:33:18;;;;;;;17.50;15.57;;;14.10;99.90;;;;;;5105620;28;20119;-66
2021/09/08 01:35:44;;;;;;;16.50;13.55;;;14.00;99.90;;;;;;5105210;28;20043;-66
2021/09/08 01:38:10;;;;;;;14.10;12.30;;;13.90;99.90;;;;;;5104599;28;20050;-66
2021/09/08 01:40:35;;;;;;;16.38;13.65;;;13.90;99.90;;;;;;5104601;28;20052;-65
2021/09/08 01:43:01;;;;;;;16.80;14.25;;;13.90;99.90;;;;;;5103984;28;20503;-66
2021/09/08 01:45:27;;;;;;;16.20;14.25;;;13.80;99.90;;;;;;5104400;28;20127;-65
2021/09/08 01:47:54;;;;;;;63.45;15.50;;;13.70;99.90;;;;;;5104242;28;20044;-66
2021/09/08 01:50:20;;;;;;;22.27;16.02;;;13.70;99.90;;;;;;5099576;28;20077;-66
2021/09/08 01:52:46;;;;;;;17.13;12.30;;;13.60;99.90;;;;;;5104946;28;20040;-66
2021/09/08 01:55:11;;;;;;;15.40;13.65;;;13.60;99.90;;;;;;5103762;28;20105;-66
2021/09/08 01:57:37;;;;;;;10.57;9.57;;;13.50;99.90;;;;;;5103879;28;20040;-66
2021/09/08 02:00:07;;;;;;;14.25;12.85;;;13.50;99.90;;;;;;5091703;28;20056;-66
2021/09/08 02:02:34;;;;;;;11.63;10.48;;;13.50;99.90;;;;;;5090842;28;20039;-66
2021/09/08 02:04:59;;;;;;;10.70;9.65;;;13.50;99.90;;;;;;5103886;28;20054;-65
2021/09/08 02:07:25;;;;;;;10.55;9.45;;;13.50;99.90;;;;;;5103985;28;20079;-65
2021/09/08 02:09:51;;;;;;;10.35;8.70;;;13.50;99.90;;;;;;5104991;28;20517;-66
2021/09/08 02:12:17;;;;;;;9.07;7.97;;;13.60;99.90;;;;;;5103882;28;20044;-65
2021/09/08 02:14:43;;;;;;;8.98;8.18;;;13.60;99.90;;;;;;5105547;28;20044;-66
2021/09/08 02:17:08;;;;;;;7.65;6.95;;;13.70;99.90;;;;;;5104071;28;20036;-66
2021/09/08 02:19:34;;;;;;;7.43;6.82;;;13.70;99.90;;;;;;5104540;28;20040;-66
2021/09/08 02:22:00;;;;;;;7.05;6.35;;;13.70;99.90;;;;;;5102911;28;20048;-66
2021/09/08 02:24:25;;;;;;;8.10;6.55;;;13.70;99.90;;;;;;5103419;28;20048;-66
2021/09/08 02:26:51;;;;;;;5.97;5.30;;;13.60;99.90;;;;;;5104749;28;20032;-65
2021/09/08 02:29:17;;;;;;;5.47;4.82;;;13.60;99.90;;;;;;5086841;28;20367;-65
2021/09/08 02:31:42;;;;;;;5.28;4.78;;;13.60;99.90;;;;;;5104966;28;20072;-65
2021/09/08 02:34:08;;;;;;;7.18;6.57;;;13.60;99.90;;;;;;5104778;28;20051;-65
2021/09/08 02:36:34;;;;;;;10.15;5.65;;;13.50;99.90;;;;;;5104635;28;20054;-65
2021/09/08 02:39:00;;;;;;;9.55;7.88;;;13.40;99.90;;;;;;5104223;28;20032;-65
2021/09/08 02:41:26;;;;;;;14.43;9.77;;;13.40;99.90;;;;;;5104963;28;20592;-65
2021/09/08 02:43:53;;;;;;;10.70;7.95;;;13.30;99.90;;;;;;5103234;28;20052;-65
2021/09/08 02:46:19;;;;;;;10.98;9.30;;;13.20;99.90;;;;;;5103629;28;20459;-65
2021/09/08 02:48:45;;;;;;;26.15;16.15;;;13.30;99.90;;;;;;5103315;28;20052;-65
2021/09/08 02:51:11;;;;;;;13.85;11.55;;;13.30;99.90;;;;;;5103496;28;20514;-65
2021/09/08 02:53:37;;;;;;;12.13;9.43;;;13.30;99.90;;;;;;5100547;28;20123;-66
2021/09/08 02:56:03;;;;;;;16.45;14.18;;;13.40;99.90;;;;;;5105275;28;20136;-65
2021/09/08 02:58:30;;;;;;;16.88;13.43;;;13.50;99.90;;;;;;5104847;28;20051;-65
2021/09/08 03:00:56;;;;;;;34.22;26.05;;;13.50;99.90;;;;;;5091297;28;20056;-65
2021/09/08 03:03:22;;;;;;;26.88;24.10;;;13.40;99.90;;;;;;5083889;28;20127;-66
2021/09/08 03:05:50;;;;;;;46.30;17.02;;;13.40;99.90;;;;;;5103553;28;20082;-65
2021/09/08 03:08:16;;;;;;;22.45;18.63;;;13.40;99.90;;;;;;5105021;28;20040;-65
2021/09/08 03:10:46;;;;;;;20.92;17.40;;;13.30;99.90;;;;;;5102642;28;20123;-65
2021/09/08 03:13:12;;;;;;;;;;;13.20;99.90;;;;;;5104701;28;20114;-65
2021/09/08 03:15:38;;;;;;;12.88;11.35;;;13.20;99.90;;;;;;5103191;28;19967;-66
2021/09/08 03:18:05;;;;;;;12.02;10.45;;;13.20;99.90;;;;;;5103658;28;20032;-65
2021/09/08 03:20:31;;;;;;;17.30;14.43;;;13.20;99.90;;;;;;5102661;28;20048;-65
2021/09/08 03:22:57;;;;;;;17.05;14.95;;;13.20;99.90;;;;;;5102893;28;20082;-66
2021/09/08 03:25:22;;;;;;;89.97;19.27;;;13.20;99.90;;;;;;5104248;28;20032;-65
2021/09/08 03:27:48;;;;;;;99.65;18.80;;;13.20;99.90;;;;;;5102734;28;20040;-65
2021/09/08 03:30:14;;;;;;;20.35;16.00;;;13.10;99.90;;;;;;5103260;28;20101;-66
2021/09/08 03:32:39;;;;;;;34.20;19.65;;;13.10;99.90;;;;;;5106223;28;20162;-66
2021/09/08 03:35:05;;;;;;;29.73;22.35;;;13.20;99.90;;;;;;5106700;28;20050;-65
2021/09/08 03:37:31;;;;;;;30.20;22.67;;;13.10;99.90;;;;;;5088453;28;20110;-65
2021/09/08 03:39:57;;;;;;;36.75;27.45;;;13.10;99.90;;;;;;5106268;28;20052;-66
2021/09/08 03:42:24;;;;;;;45.08;25.92;;;13.10;99.90;;;;;;5107049;28;20089;-65
2021/09/08 03:44:50;;;;;;;83.22;33.47;;;13.10;99.90;;;;;;5107916;28;20052;-65
2021/09/08 03:47:16;;;;;;;35.92;27.65;;;13.10;99.90;;;;;;5105967;28;20487;-65
2021/09/08 03:49:45;;;;;;;30.15;24.02;;;13.10;99.90;;;;;;5105917;28;20060;-66
2021/09/08 03:52:12;;;;;;;31.52;22.77;;;13.10;99.90;;;;;;5105849;28;20510;-66
2021/09/08 03:54:38;;;;;;;32.47;25.33;;;13.10;99.90;;;;;;5106400;28;20056;-66
2021/09/08 03:57:04;;;;;;;32.72;25.77;;;13.10;99.90;;;;;;5106800;28;20052;-65
2021/09/08 03:59:29;;;;;;;22.90;19.67;;;13.00;99.90;;;;;;5105906;28;20044;-65
2021/09/08 04:01:55;;;;;;;18.35;15.75;;;13.00;99.90;;;;;;5105652;28;20504;-66
2021/09/08 04:04:21;;;;;;;16.95;15.15;;;12.90;99.90;;;;;;5107128;28;20097;-65
2021/09/08 04:06:46;;;;;;;15.15;13.50;;;12.80;99.90;;;;;;5107358;28;20047;-66
2021/09/08 04:09:12;;;;;;;12.70;11.00;;;12.70;99.90;;;;;;5106425;28;20036;-65
2021/09/08 04:11:38;;;;;;;11.80;10.13;;;12.70;99.90;;;;;;5088523;28;20078;-65
2021/09/08 04:14:04;;;;;;;13.43;9.60;;;12.70;99.90;;;;;;5105792;28;20043;-65
2021/09/08 04:16:30;;;;;;;10.90;9.50;;;12.60;99.90;;;;;;5097288;28;20044;-66
2021/09/08 04:18:55;;;;;;;10.70;9.43;;;12.60;99.90;;;;;;5101290;28;20056;-65
2021/09/08 04:21:21;;;;;;;12.32;8.88;;;12.60;99.90;;;;;;5106548;28;20071;-66
2021/09/08 04:23:47;;;;;;;10.00;8.13;;;12.60;99.90;;;;;;5106025;28;20082;-66
2021/09/08 04:26:13;;;;;;;9.85;7.63;;;12.60;99.90;;;;;;5088764;28;20088;-65
2021/09/08 04:28:38;;;;;;;7.68;6.68;;;12.60;99.90;;;;;;5105332;28;20122;-66
2021/09/08 04:31:04;;;;;;;8.43;7.35;;;12.60;99.90;;;;;;5105550;28;20048;-65
2021/09/08 04:33:30;;;;;;;13.40;10.75;;;12.60;99.90;;;;;;5105296;28;20059;-65
2021/09/08 04:35:57;;;;;;;14.40;12.07;;;12.60;99.90;;;;;;5098926;28;20075;-65
2021/09/08 04:38:24;;;;;;;15.27;13.65;;;12.70;99.90;;;;;;5099112;28;20050;-65
2021/09/08 04:40:50;;;;;;;14.70;11.80;;;12.80;99.90;;;;;;5105159;28;20360;-65
2021/09/08 04:43:16;;;;;;;15.15;11.45;;;12.90;99.90;;;;;;5091019;28;20048;-66
2021/09/08 04:45:42;;;;;;;14.60;12.82;;;12.90;99.90;;;;;;5106459;28;20065;-65
2021/09/08 04:48:08;;;;;;;14.60;12.30;;;12.80;99.90;;;;;;5106283;28;20074;-65
2021/09/08 04:50:35;;;;;;;13.57;11.95;;;12.80;99.90;;;;;;5104885;28;20068;-65
2021/09/08 04:53:01;;;;;;;13.02;11.45;;;12.70;99.90;;;;;;5104865;28;20036;-66
2021/09/08 04:55:26;;;;;;;13.73;11.50;;;12.60;99.90;;;;;;5103724;28;20061;-66
2021/09/08 04:57:52;;;;;;;12.32;11.00;;;12.60;99.90;;;;;;5106970;28;20043;-65
2021/09/08 05:00:18;;;;;;;10.48;9.38;;;12.40;99.90;;;;;;5105916;28;20073;-65
2021/09/08 05:02:43;;;;;;;10.48;9.38;;;12.30;99.90;;;;;;5106562;28;20044;-65
2021/09/08 05:05:09;;;;;;;12.35;10.57;;;12.30;99.90;;;;;;5090816;28;20101;-66
2021/09/08 05:07:35;;;;;;;11.13;9.95;;;12.30;99.90;;;;;;5105193;28;20384;-66
2021/09/08 05:10:01;;;;;;;12.77;11.48;;;12.40;99.90;;;;;;5107116;28;20065;-65
2021/09/08 05:12:27;;;;;;;14.40;12.57;;;12.40;99.90;;;;;;5105017;28;20092;-65
2021/09/08 05:14:52;;;;;;;18.33;14.30;;;12.60;99.90;;;;;;5106105;28;20086;-65
2021/09/08 05:17:18;;;;;;;14.65;13.10;;;12.70;99.90;;;;;;5104156;28;20279;-65
2021/09/08 05:19:44;;;;;;;15.25;12.60;;;12.70;99.90;;;;;;5087632;28;20144;-65
2021/09/08 05:22:09;;;;;;;19.08;12.10;;;12.70;99.90;;;;;;5103015;28;20108;-65
2021/09/08 05:24:35;;;;;;;28.08;21.05;;;12.70;99.90;;;;;;5103365;28;20055;-65
2021/09/08 05:27:01;;;;;;;30.13;24.17;;;12.80;99.90;;;;;;5106022;28;20032;-66
2021/09/08 05:29:26;;;;;;;34.75;25.38;;;13.00;99.90;;;;;;5101899;28;20054;-67
2021/09/08 05:31:52;;;;;;;31.85;23.45;;;13.10;99.90;;;;;;5102436;28;20092;-67
2021/09/08 05:34:18;;;;;;;30.23;23.23;;;13.20;99.90;;;;;;5102897;28;20495;-66
2021/09/08 05:36:44;;;;;;;28.10;23.08;;;13.30;99.90;;;;;;5102701;28;20071;-66
2021/09/08 05:39:09;;;;;;;30.27;23.77;;;13.40;99.90;;;;;;5099665;28;20048;-66
2021/09/08 05:41:35;;;;;;;28.23;23.17;;;13.40;99.90;;;;;;5102506;28;20438;-67
2021/09/08 05:44:01;;;;;;;27.45;21.80;;;13.40;99.90;;;;;;5100525;28;20046;-68
2021/09/08 05:46:26;;;;;;;27.60;20.67;;;13.40;99.90;;;;;;5101757;28;20048;-68
2021/09/08 05:48:52;;;;;;;25.63;19.95;;;13.50;99.90;;;;;;5102192;28;20119;-68
2021/09/08 05:51:18;;;;;;;25.83;21.27;;;13.50;99.90;;;;;;5100571;28;20069;-68
2021/09/08 05:53:43;;;;;;;27.77;22.10;;;13.50;99.90;;;;;;5101915;28;20055;-67
2021/09/08 05:56:09;;;;;;;28.67;22.17;;;13.50;99.90;;;;;;5101561;28;20040;-67
2021/09/08 05:58:35;;;;;;;29.30;23.25;;;13.50;99.90;;;;;;5104397;28;20040;-66
2021/09/08 06:01:00;;;;;;;28.85;22.95;;;13.60;99.90;;;;;;5103590;28;20054;-66
2021/09/08 06:03:26;;;;;;;29.45;22.90;;;13.70;99.90;;;;;;5103326;28;20040;-66
2021/09/08 06:05:52;;;;;;;33.20;25.75;;;13.70;99.90;;;;;;5101530;28;20056;-68
2021/09/08 06:08:18;;;;;;;37.13;26.10;;;13.80;99.90;;;;;;5103093;28;20043;-64
2021/09/08 06:10:44;;;;;;;33.03;25.02;;;14.00;99.90;;;;;;5102679;28;20055;-66
2021/09/08 06:13:09;;;;;;;34.45;26.17;;;14.00;99.90;;;;;;5102876;28;20040;-66
2021/09/08 06:15:35;;;;;;;38.95;27.50;;;14.10;99.90;;;;;;5104685;28;20051;-66
2021/09/08 06:18:03;;;;;;;40.30;26.38;;;14.20;99.90;;;;;;5105230;28;20119;-66
2021/09/08 06:20:29;;;;;;;39.08;27.70;;;14.30;99.90;;;;;;5092148;28;20063;-67
2021/09/08 06:22:56;;;;;;;36.28;27.55;;;14.40;99.90;;;;;;5098071;28;20491;-66
2021/09/08 06:25:21;;;;;;;38.38;28.50;;;14.50;99.90;;;;;;5103898;28;20048;-67
2021/09/08 06:27:47;;;;;;;33.75;27.23;;;14.50;99.90;;;;;;5081516;28;20077;-67
2021/09/08 06:30:13;;;;;;;33.40;25.20;;;14.60;99.90;;;;;;5102918;28;20067;-66
2021/09/08 06:32:39;;;;;;;36.28;26.33;;;14.60;99.90;;;;;;5088511;28;20965;-66
2021/09/08 06:35:05;;;;;;;32.20;26.13;;;14.70;99.90;;;;;;5071812;28;20052;-66
2021/09/08 06:37:30;;;;;;;34.30;26.17;;;14.70;99.90;;;;;;5083292;28;20361;-67
2021/09/08 06:39:56;;;;;;;31.67;25.42;;;14.80;99.90;;;;;;5074973;28;20152;-67
2021/09/08 06:42:22;;;;;;;34.53;25.98;;;14.80;99.90;;;;;;5097917;28;20028;-66
2021/09/08 06:44:53;;;;;;;34.15;27.55;;;14.90;99.90;;;;;;5089232;28;20085;-67
2021/09/08 06:47:22;;;;;;;33.60;25.33;;;14.90;99.90;;;;;;5108418;28;20051;-67
2021/09/08 06:49:49;;;;;;;29.58;23.95;;;15.00;99.90;;;;;;5090071;28;20535;-67
2021/09/08 06:52:15;;;;;;;30.88;24.63;;;15.00;99.90;;;;;;5097440;28;20080;-67
2021/09/08 06:54:41;;;;;;;37.20;25.58;;;15.10;99.90;;;;;;5086987;28;20058;-67
2021/09/08 06:57:09;;;;;;;31.35;25.67;;;15.10;99.90;;;;;;5095600;28;20407;-66
2021/09/08 06:59:35;;;;;;;28.35;23.33;;;15.20;99.90;;;;;;5089523;28;20065;-65
2021/09/08 07:02:01;;;;;;;29.95;24.48;;;15.20;99.90;;;;;;5109210;28;20205;-63
2021/09/08 07:04:27;;;;;;;29.92;21.80;;;15.30;99.90;;;;;;5087162;28;20235;-65
2021/09/08 07:06:53;;;;;;;31.33;24.67;;;15.40;99.90;;;;;;5095520;28;20494;-65
2021/09/08 07:09:19;;;;;;;32.53;24.95;;;15.40;99.90;;;;;;5089572;28;20032;-67
2021/09/08 07:11:44;;;;;;;33.42;25.38;;;15.50;99.90;;;;;;5098818;28;20082;-65
2021/09/08 07:14:10;;;;;;;28.73;23.38;;;15.60;99.90;;;;;;5099912;28;20040;-66
2021/09/08 07:16:36;;;;;;;29.23;23.67;;;15.60;99.90;;;;;;5107289;27;20063;-66
2021/09/08 07:19:02;;;;;;;30.38;24.13;;;15.70;99.90;;;;;;5102190;28;20036;-66
2021/09/08 07:21:28;;;;;;;28.83;22.77;;;15.80;99.90;;;;;;5085763;28;20040;-66
2021/09/08 07:23:54;;;;;;;28.27;22.30;;;15.90;99.90;;;;;;5099819;28;20336;-66
2021/09/08 07:26:19;;;;;;;31.48;24.83;;;16.00;99.90;;;;;;5103038;27;20063;-67
2021/09/08 07:28:45;;;;;;;28.02;22.20;;;16.00;99.90;;;;;;5098057;28;20040;-66
2021/09/08 07:31:11;;;;;;;28.67;20.88;;;16.10;99.90;;;;;;5100850;27;20111;-65
2021/09/08 07:33:36;;;;;;;26.17;20.40;;;16.20;99.90;;;;;;5100788;28;20044;-66
2021/09/08 07:36:02;;;;;;;27.40;22.80;;;16.30;99.90;;;;;;5103454;28;20062;-66
2021/09/08 07:38:28;;;;;;;25.23;21.40;;;16.40;99.90;;;;;;5100797;28;20052;-66
2021/09/08 07:40:55;;;;;;;26.25;21.17;;;16.40;99.90;;;;;;5103777;28;20055;-66
2021/09/08 07:43:21;;;;;;;26.05;20.45;;;16.50;99.90;;;;;;5105358;28;20127;-66
2021/09/08 07:45:47;;;;;;;26.15;20.48;;;16.50;99.90;;;;;;5102343;28;20937;-66
2021/09/08 07:48:13;;;;;;;25.60;20.42;;;16.60;99.90;;;;;;5106856;28;20352;-66
2021/09/08 07:50:39;;;;;;;25.48;20.92;;;16.60;99.90;;;;;;5100583;28;20047;-65
2021/09/08 07:53:09;;;;;;;26.50;22.00;;;16.70;99.90;;;;;;5098410;28;20334;-66
2021/09/08 07:55:36;;;;;;;27.20;21.70;;;16.80;99.90;;;;;;5092243;28;20062;-66
2021/09/08 07:58:02;;;;;;;23.63;19.38;;;16.90;99.90;;;;;;5093544;28;20040;-65
2021/09/08 08:00:29;;;;;;;27.27;20.90;;;17.00;99.90;;;;;;5097065;28;20056;-66
2021/09/08 08:02:54;;;;;;;26.75;21.73;;;17.00;99.90;;;;;;5097827;28;20043;-66
2021/09/08 08:05:20;;;;;;;23.42;20.67;;;17.10;99.90;;;;;;5095980;28;20044;-65
2021/09/08 08:07:47;;;;;;;23.73;20.13;;;17.20;99.90;;;;;;5110388;28;20090;-65
2021/09/08 08:10:14;;;;;;;25.33;21.08;;;17.30;99.90;;;;;;5097108;28;20081;-65
2021/09/08 08:12:40;;;;;;;27.90;20.40;;;17.30;99.90;;;;;;5109091;28;20667;-66
2021/09/08 08:15:08;;;;;;;25.30;20.52;;;17.40;99.90;;;;;;5093397;28;20473;-66
2021/09/08 08:17:34;;;;;;;23.15;18.95;;;17.40;99.90;;;;;;5109315;28;20081;-66
2021/09/08 08:20:00;;;;;;;22.55;19.58;;;17.50;99.90;;;;;;5087788;28;20055;-67
2021/09/08 08:22:26;;;;;;;21.73;17.90;;;17.60;99.90;;;;;;5087705;28;20052;-65
2021/09/08 08:24:52;;;;;;;23.33;18.48;;;17.70;99.90;;;;;;5078652;28;21404;-66
2021/09/08 08:27:18;;;;;;;21.73;18.33;;;17.80;99.90;;;;;;5067669;28;20116;-66
2021/09/08 08:29:44;;;;;;;25.50;19.98;;;17.90;99.90;;;;;;5070060;28;20048;-66
2021/09/08 08:32:10;;;;;;;23.50;17.98;;;18.00;99.90;;;;;;5076952;28;20551;-66
2021/09/08 08:34:35;;;;;;;23.48;18.23;;;18.20;99.90;;;;;;5050447;28;20048;-67
2021/09/08 08:37:01;;;;;;;23.45;17.73;;;18.40;99.90;;;;;;5083314;28;20127;-65
2021/09/08 08:39:27;;;;;;;22.27;17.58;;;18.40;99.90;;;;;;5078976;28;20098;-65
2021/09/08 08:41:53;;;;;;;19.42;15.60;;;18.60;99.90;;;;;;5083705;28;20048;-65
2021/09/08 08:44:22;;;;;;;20.42;16.55;;;18.60;99.90;;;;;;5059649;28;20063;-65
2021/09/08 08:46:49;;;;;;;19.40;15.32;;;18.70;99.90;;;;;;5082967;28;20044;-65
2021/09/08 08:49:16;;;;;;;21.25;16.50;;;18.70;99.90;;;;;;5078028;28;20048;-66
2021/09/08 08:51:42;;;;;;;19.23;16.33;;;18.90;99.90;;;;;;5068724;28;20075;-66
2021/09/08 08:54:08;;;;;;;21.48;15.98;;;18.80;99.90;;;;;;5079687;28;20109;-67
2021/09/08 08:56:34;;;;;;;23.30;17.23;;;19.00;99.90;;;;;;5083879;28;20052;-68
2021/09/08 08:58:59;;;;;;;20.55;16.17;;;19.10;99.90;;;;;;5080885;28;20029;-66
2021/09/08 09:01:26;;;;;;;21.50;16.75;;;19.30;99.90;;;;;;5071463;28;20105;-67
2021/09/08 09:04:07;;;;;;;20.90;15.27;;;19.30;99.90;;;;;;5075511;28;20036;-66
2021/09/08 09:06:34;;;;;;;20.50;15.27;;;19.30;99.90;;;;;;5078995;28;20044;-66
2021/09/08 09:09:06;;;;;;;19.77;14.48;;;19.30;99.90;;;;;;5079977;28;20074;-66
2021/09/08 09:11:33;;;;;;;19.50;14.85;;;19.30;99.90;;;;;;5084318;28;20055;-66
2021/09/08 09:14:00;;;;;;;17.00;14.00;;;19.40;99.90;;;;;;5078087;28;20041;-66
2021/09/08 09:16:27;;;;;;;14.80;10.93;;;19.40;99.90;;;;;;5080468;28;20540;-66
2021/09/08 09:18:54;;;;;;;15.70;12.00;;;19.40;99.90;;;;;;5072523;28;20052;-66
2021/09/08 09:21:21;;;;;;;19.60;12.73;;;19.60;99.90;;;;;;5057409;28;20067;-67
2021/09/08 09:23:53;;;;;;;15.25;13.15;;;19.70;99.90;;;;;;5070872;28;20029;-66
2021/09/08 09:26:28;;;;;;;16.48;12.52;;;19.80;99.90;;;;;;5102715;27;20409;-66
2021/09/08 09:29:04;;;;;;;16.58;11.90;;;20.10;99.90;;;;;;5097625;28;20040;-66
2021/09/08 09:31:30;;;;;;;17.83;11.73;;;20.20;99.90;;;;;;5109974;27;20272;-66
2021/09/08 09:33:57;;;;;;;16.63;11.52;;;20.20;99.90;;;;;;5091737;28;20344;-66
2021/09/08 09:36:31;;;;;;;16.75;12.25;;;20.20;99.90;;;;;;5101779;27;20790;-66
2021/09/08 09:38:58;;;;;;;15.18;11.65;;;20.30;99.90;;;;;;5084741;28;20132;-66
2021/09/08 09:41:27;;;;;;;13.55;10.73;;;20.40;99.90;;;;;;5105290;27;20079;-66
2021/09/08 09:43:53;;;;;;;14.10;11.27;;;20.40;99.90;;;;;;5081976;28;20079;-66
2021/09/08 09:46:19;;;;;;;16.42;11.82;;;20.50;99.90;;;;;;5064950;28;20219;-66
2021/09/08 09:48:45;;;;;;;14.05;12.52;;;20.50;99.90;;;;;;5083896;28;20041;-66
2021/09/08 09:51:13;;;;;;;12.52;9.95;;;20.60;99.90;;;;;;5086425;28;20586;-66
2021/09/08 09:53:40;;;;;;;15.35;10.13;;;20.60;99.90;;;;;;5083472;28;20090;-66
2021/09/08 09:56:06;;;;;;;13.70;10.68;;;20.70;99.90;;;;;;5067669;28;20086;-66
2021/09/08 09:58:32;;;;;;;13.38;9.88;;;20.80;99.90;;;;;;5062737;28;20044;-66
2021/09/08 10:00:58;;;;;;;11.02;8.20;;;20.80;99.90;;;;;;5048534;28;20052;-66
2021/09/08 10:03:24;;;;;;;10.88;9.18;;;20.90;99.90;;;;;;5069442;28;20233;-66
2021/09/08 10:05:50;;;;;;;10.70;8.57;;;20.90;99.90;;;;;;5080932;28;20056;-66
2021/09/08 10:08:19;;;;;;;12.45;8.73;;;21.00;99.90;;;;;;5095305;28;20067;-66
2021/09/08 10:10:47;;;;;;;12.55;8.63;;;20.90;99.90;;;;;;5095625;28;20104;-66
2021/09/08 10:13:20;;;;;;;11.90;8.25;;;21.00;99.90;;;;;;5103627;28;20044;-66
2021/09/08 10:15:48;;;;;;;11.93;8.63;;;21.10;99.90;;;;;;5074182;28;20062;-66
2021/09/08 10:18:16;;;;;;;10.18;7.97;;;21.20;99.90;;;;;;5084085;28;20111;-66
2021/09/08 10:20:45;;;;;;;8.77;7.57;;;21.30;99.90;;;;;;5077000;28;20051;-68
2021/09/08 10:23:15;;;;;;;10.13;6.88;;;21.30;99.90;;;;;;5106290;28;20126;-66
2021/09/08 10:25:49;;;;;;;10.88;7.65;;;21.40;99.90;;;;;;5075666;28;20064;-66
2021/09/08 10:28:19;;;;;;;9.77;8.10;;;21.40;99.90;;;;;;5091083;28;20523;-66
2021/09/08 10:30:45;;;;;;;;;;;21.50;99.90;;;;;;5082664;28;20043;-66
2021/09/08 10:33:12;;;;;;;7.47;6.68;;;21.50;99.90;;;;;;5089319;28;19921;-66
2021/09/08 10:35:39;;;;;;;13.90;8.20;;;21.70;99.90;;;;;;5078476;28;20055;-66
2021/09/08 10:38:17;;;;;;;12.50;7.63;;;21.70;99.90;;;;;;5078509;28;20048;-67
2021/09/08 10:40:46;;;;;;;9.20;6.60;;;21.80;99.90;;;;;;5088197;28;20067;-66
2021/09/08 10:43:12;;;;;;;7.15;5.63;;;21.80;99.90;;;;;;5094712;28;20040;-66
2021/09/08 10:45:50;;;;;;;9.40;6.72;;;21.90;99.90;;;;;;5076325;28;20063;-66
2021/09/08 10:48:38;;;;;;;8.10;6.15;;;21.90;99.90;;;;;;5096886;28;20047;-66
2021/09/08 10:51:07;;;;;;;7.25;6.18;;;22.00;99.90;;;;;;5094007;28;20086;-66
2021/09/08 10:53:34;;;;;;;8.95;6.70;;;22.10;99.90;;;;;;5106003;28;20036;-65
2021/09/08 10:56:02;;;;;;;7.07;5.50;;;22.10;99.90;;;;;;5090586;28;20122;-65
2021/09/08 10:58:58;;;;;;;7.88;6.00;;;22.20;99.90;;;;;;5106223;28;20061;-65
2021/09/08 11:01:25;;;;;;;6.88;5.50;;;22.20;99.90;;;;;;5098495;28;20047;-67
2021/09/08 11:03:51;;;;;;;7.22;5.45;;;22.20;99.90;;;;;;5103625;28;20040;-65
2021/09/08 11:06:18;;;;;;;8.77;5.53;;;22.30;99.90;;;;;;5090678;28;20056;-66
2021/09/08 11:08:44;;;;;;;8.77;5.50;;;22.30;99.90;;;;;;5107111;28;20080;-66
2021/09/08 11:11:19;;;;;;;6.22;5.00;;;22.50;99.90;;;;;;5100950;28;20046;-66
2021/09/08 11:13:53;;;;;;;7.20;5.40;;;22.40;99.90;;;;;;5104569;28;20534;-65
2021/09/08 11:16:29;;;;;;;7.18;4.78;;;22.40;99.90;;;;;;5100666;28;20048;-66
2021/09/08 11:18:57;;;;;;;9.93;5.43;;;22.50;99.90;;;;;;5104345;28;20046;-66
2021/09/08 11:21:33;;;;;;;7.05;4.80;;;22.50;99.90;;;;;;5084991;28;20090;-67
2021/09/08 11:24:04;;;;;;;6.28;5.20;;;22.50;99.90;;;;;;5103640;28;20036;-65
2021/09/08 11:26:32;;;;;;;5.47;4.43;;;22.60;99.90;;;;;;5101659;28;20362;-66
2021/09/08 11:29:07;;;;;;;5.85;4.80;;;22.60;99.90;;;;;;5104418;28;20055;-65
2021/09/08 11:31:36;;;;;;;6.65;4.50;;;22.70;99.90;;;;;;5100927;28;20539;-65
2021/09/08 11:34:03;;;;;;;7.50;4.50;;;22.70;99.90;;;;;;5091530;28;20522;-65
2021/09/08 11:36:30;;;;;;;6.20;4.32;;;22.80;99.90;;;;;;5090450;28;20046;-66
2021/09/08 11:38:58;;;;;;;7.63;4.85;;;22.80;99.90;;;;;;5084516;28;20055;-65
2021/09/08 11:41:26;;;;;;;5.38;4.63;;;22.90;99.90;;;;;;5079226;28;20055;-66
2021/09/08 11:43:55;;;;;;;8.13;5.10;;;22.90;99.90;;;;;;5086380;28;20029;-64
2021/09/08 11:46:26;;;;;;;8.23;4.73;;;22.90;99.90;;;;;;5078830;28;20075;-65
2021/09/08 11:48:54;;;;;;;7.15;5.28;;;23.00;99.90;;;;;;5078414;28;20056;-65
2021/09/08 11:51:25;;;;;;;7.15;4.97;;;23.10;99.90;;;;;;5074457;28;20056;-65
2021/09/08 11:53:52;;;;;;;8.77;5.40;;;23.10;99.90;;;;;;5091306;28;20073;-65
2021/09/08 11:56:21;;;;;;;8.02;6.28;;;23.10;99.90;;;;;;5083144;28;20125;-65
2021/09/08 11:58:55;;;;;;;6.57;5.07;;;23.10;99.90;;;;;;5089114;28;20585;-66
2021/09/08 12:01:22;;;;;;;7.03;5.57;;;23.20;99.90;;;;;;5096356;28;20060;-65
2021/09/08 12:03:57;;;;;;;7.18;5.22;;;23.20;99.90;;;;;;5102244;28;20387;-65
2021/09/08 12:06:27;;;;;;;6.30;5.18;;;23.20;99.90;;;;;;5083536;28;20048;-65
2021/09/08 12:09:10;;;;;;;6.50;5.25;;;23.30;99.90;;;;;;5080263;28;20158;-65
2021/09/08 12:11:45;;;;;;;6.35;5.00;;;23.40;99.90;;;;;;5073128;28;20055;-66
2021/09/08 12:14:39;;;;;;;8.45;5.55;;;23.40;99.90;;;;;;5084996;28;20052;-65
2021/09/08 12:17:25;;;;;;;8.00;5.30;;;23.50;99.90;;;;;;5071158;28;20124;-65
2021/09/08 12:19:54;;;;;;;8.73;5.50;;;23.60;99.90;;;;;;5081484;28;20094;-65
2021/09/08 12:22:35;;;;;;;7.72;6.00;;;23.70;99.90;;;;;;5066049;28;20087;-65
2021/09/08 12:25:05;;;;;;;6.82;5.32;;;23.70;99.90;;;;;;5067239;28;20314;-66
2021/09/08 12:27:45;;;;;;;6.20;5.50;;;23.80;99.90;;;;;;5082282;28;20574;-65
2021/09/08 12:30:22;;;;;;;5.75;4.75;;;23.90;99.90;;;;;;5090976;28;20049;-65
2021/09/08 12:32:55;;;;;;;6.70;5.03;;;24.00;99.90;;;;;;5069197;28;20052;-65